Time;durP1;ratioP1;P1;durP2;ratioP2;P2;SDS_P1;SDS_P2;PMS_P1;PMS_P2;Temp;Humidity;BMP_temperature;BMP_pressure;BME280_temperature;BME280_humidity;BME280_pressure;Samples;Min_cycle;Max_cycle;Signal;HPM_P1;HPM_P2
2023/06/28 00:01:44;;;;;;;3.17;1.45;;;;;;;;;;5081389;28;20036;-65
2023/06/28 00:04:14;;;;;;;2.97;1.48;;;;;;;;;;5075791;28;20135;-71
2023/06/28 00:06:43;;;;;;;1.98;1.33;;;;;;;;;;5082223;28;20125;-65
2023/06/28 00:09:11;;;;;;;2.42;1.40;;;;;;;;;;5079222;28;20196;-63
2023/06/28 00:11:40;;;;;;;2.65;1.48;;;;;;;;;;5080529;28;20048;-68
2023/06/28 00:14:08;;;;;;;2.38;1.60;;;;;;;;;;5076216;28;20044;-65
2023/06/28 00:16:38;;;;;;;2.17;1.70;;;;;;;;;;5080260;28;20063;-64
2023/06/28 00:19:06;;;;;;;3.60;1.80;;;;;;;;;;5079344;28;20133;-64
2023/06/28 00:21:35;;;;;;;3.03;1.70;;;;;;;;;;5080733;28;20082;-63
2023/06/28 00:24:03;;;;;;;2.25;1.60;;;;;;;;;;5077344;28;20075;-69
2023/06/28 00:26:31;;;;;;;3.72;1.90;;;;;;;;;;5078551;28;20190;-67
2023/06/28 00:29:00;;;;;;;3.53;1.58;;;;;;;;;;5078818;28;20055;-64
2023/06/28 00:31:32;;;;;;;1.80;1.52;;;;;;;;;;5077769;28;20089;-63
2023/06/28 00:34:02;;;;;;;2.60;1.58;;;;;;;;;;5078546;28;20459;-63
2023/06/28 00:36:30;;;;;;;4.57;2.00;;;;;;;;;;5078954;28;20071;-63
2023/06/28 00:38:59;;;;;;;2.35;1.55;;;;;;;;;;5080793;28;20044;-63
2023/06/28 00:41:27;;;;;;;4.25;2.03;;;;;;;;;;5079932;28;20492;-66
2023/06/28 00:43:55;;;;;;;2.60;1.70;;;;;;;;;;5080743;28;20218;-63
2023/06/28 00:46:24;;;;;;;3.10;1.77;;;;;;;;;;5078080;28;20056;-62
2023/06/28 00:48:52;;;;;;;5.18;1.90;;;;;;;;;;5080946;28;20052;-64
2023/06/28 00:51:22;;;;;;;3.75;1.90;;;;;;;;;;5078532;28;20048;-69
2023/06/28 00:53:51;;;;;;;3.35;1.80;;;;;;;;;;5078453;28;20500;-64
2023/06/28 00:56:19;;;;;;;3.15;2.38;;;;;;;;;;5078743;28;20068;-63
2023/06/28 00:58:48;;;;;;;3.78;1.83;;;;;;;;;;5076681;28;20043;-73
2023/06/28 01:01:16;;;;;;;3.70;1.95;;;;;;;;;;5081117;28;20060;-63
2023/06/28 01:03:44;;;;;;;4.68;1.90;;;;;;;;;;5095448;22;20125;-68
2023/06/28 01:06:13;;;;;;;3.63;1.92;;;;;;;;;;5075907;28;20476;-67
2023/06/28 01:08:43;;;;;;;3.33;2.10;;;;;;;;;;5080328;28;20988;-68
2023/06/28 01:11:12;;;;;;;5.70;2.42;;;;;;;;;;5077249;28;20040;-66
2023/06/28 01:13:41;;;;;;;7.00;1.90;;;;;;;;;;5078039;28;20112;-67
2023/06/28 01:16:10;;;;;;;5.95;2.15;;;;;;;;;;5083406;28;20052;-67
2023/06/28 01:18:39;;;;;;;4.18;2.33;;;;;;;;;;5081519;28;20475;-66
2023/06/28 01:21:11;;;;;;;6.03;2.15;;;;;;;;;;5082556;28;20102;-66
2023/06/28 01:23:40;;;;;;;3.40;2.00;;;;;;;;;;5082219;28;21371;-68
2023/06/28 01:26:09;;;;;;;3.13;2.00;;;;;;;;;;5078862;28;20040;-68
2023/06/28 01:28:38;;;;;;;3.13;2.05;;;;;;;;;;5080048;28;20142;-66
2023/06/28 01:31:06;;;;;;;4.72;2.08;;;;;;;;;;5080838;28;20516;-66
2023/06/28 01:33:34;;;;;;;3.83;2.22;;;;;;;;;;5080050;28;20072;-67
2023/06/28 01:36:03;;;;;;;3.92;2.40;;;;;;;;;;5081286;28;20098;-67
2023/06/28 01:38:32;;;;;;;4.47;2.35;;;;;;;;;;5074007;28;20139;-67
2023/06/28 01:41:02;;;;;;;3.65;2.47;;;;;;;;;;5082007;28;20097;-67
2023/06/28 01:43:30;;;;;;;7.80;2.10;;;;;;;;;;5080507;28;20071;-66
2023/06/28 01:45:59;;;;;;;4.05;2.40;;;;;;;;;;5081652;28;20101;-67
2023/06/28 01:48:28;;;;;;;3.05;1.95;;;;;;;;;;5076967;28;20048;-66
2023/06/28 01:50:56;;;;;;;4.75;2.28;;;;;;;;;;5081172;28;20059;-66
2023/06/28 01:53:24;;;;;;;5.07;2.05;;;;;;;;;;5080285;28;20733;-67
2023/06/28 01:55:53;;;;;;;3.17;2.20;;;;;;;;;;5081830;28;20125;-67
2023/06/28 01:58:23;;;;;;;4.60;2.08;;;;;;;;;;5082598;28;20065;-67
2023/06/28 02:00:51;;;;;;;3.10;1.95;;;;;;;;;;5079115;28;20180;-66
2023/06/28 02:03:19;;;;;;;4.38;2.08;;;;;;;;;;5078553;28;20139;-66
2023/06/28 02:05:48;;;;;;;4.82;2.00;;;;;;;;;;5081992;28;20408;-66
2023/06/28 02:08:16;;;;;;;3.15;1.92;;;;;;;;;;5082669;28;20073;-67
2023/06/28 02:10:45;;;;;;;5.32;2.20;;;;;;;;;;5081352;28;20075;-67
2023/06/28 02:13:14;;;;;;;5.57;1.97;;;;;;;;;;5079399;28;20052;-66
2023/06/28 02:15:44;;;;;;;3.85;2.15;;;;;;;;;;5082040;28;20044;-66
2023/06/28 02:18:16;;;;;;;3.65;1.85;;;;;;;;;;5078516;28;20496;-66
2023/06/28 02:20:45;;;;;;;5.35;1.80;;;;;;;;;;5079778;28;20048;-66
2023/06/28 02:23:13;;;;;;;3.35;1.80;;;;;;;;;;5079375;28;20135;-67
2023/06/28 02:25:41;;;;;;;4.03;2.22;;;;;;;;;;5079586;28;20040;-67
2023/06/28 02:28:10;;;;;;;2.55;1.63;;;;;;;;;;5078742;28;20040;-67
2023/06/28 02:30:38;;;;;;;4.57;1.88;;;;;;;;;;5078877;28;20446;-66
2023/06/28 02:33:08;;;;;;;6.28;2.03;;;;;;;;;;5079330;28;20035;-67
2023/06/28 02:35:37;;;;;;;2.97;1.70;;;;;;;;;;5079063;28;20109;-67
2023/06/28 02:38:05;;;;;;;4.15;2.13;;;;;;;;;;5080570;28;20101;-67
2023/06/28 02:40:34;;;;;;;2.53;1.50;;;;;;;;;;5079280;28;20051;-66
2023/06/28 02:43:02;;;;;;;4.88;1.63;;;;;;;;;;5080067;28;20457;-66
2023/06/28 02:45:31;;;;;;;4.47;1.50;;;;;;;;;;5080020;28;20132;-67
2023/06/28 02:47:59;;;;;;;3.38;1.80;;;;;;;;;;5077822;28;20129;-67
2023/06/28 02:50:30;;;;;;;5.70;1.75;;;;;;;;;;5080826;28;20048;-67
2023/06/28 02:52:58;;;;;;;5.85;1.92;;;;;;;;;;5079549;28;20059;-67
2023/06/28 02:55:27;;;;;;;2.67;1.80;;;;;;;;;;5078407;28;20079;-66
2023/06/28 02:57:55;;;;;;;6.65;1.88;;;;;;;;;;5078358;28;20513;-67
2023/06/28 03:00:23;;;;;;;3.63;1.58;;;;;;;;;;5077480;28;20044;-66
2023/06/28 03:02:52;;;;;;;3.75;1.80;;;;;;;;;;5081297;28;20044;-67
2023/06/28 03:05:20;;;;;;;5.50;1.67;;;;;;;;;;5077653;28;20055;-67
2023/06/28 03:07:50;;;;;;;4.93;1.92;;;;;;;;;;5078841;28;20087;-67
2023/06/28 03:10:19;;;;;;;5.32;1.63;;;;;;;;;;5071252;28;20834;-67
2023/06/28 03:12:47;;;;;;;4.40;1.90;;;;;;;;;;5078568;28;20048;-67
2023/06/28 03:15:16;;;;;;;5.53;2.28;;;;;;;;;;5076284;28;20052;-65
2023/06/28 03:17:44;;;;;;;2.58;1.90;;;;;;;;;;5077560;28;20788;-65
2023/06/28 03:20:13;;;;;;;3.13;1.70;;;;;;;;;;5076816;28;20044;-66
2023/06/28 03:22:41;;;;;;;2.85;1.80;;;;;;;;;;5076855;28;20101;-67
2023/06/28 03:25:11;;;;;;;2.92;1.48;;;;;;;;;;5073867;28;20075;-66
2023/06/28 03:27:39;;;;;;;3.17;1.83;;;;;;;;;;5078347;28;20048;-67
2023/06/28 03:30:09;;;;;;;3.10;2.05;;;;;;;;;;5082292;28;20133;-67
2023/06/28 03:32:37;;;;;;;2.45;1.90;;;;;;;;;;5082102;28;20059;-67
2023/06/28 03:35:06;;;;;;;3.17;1.90;;;;;;;;;;5083375;28;20059;-67
2023/06/28 03:37:35;;;;;;;3.00;1.80;;;;;;;;;;5079220;28;20076;-66
2023/06/28 03:40:04;;;;;;;2.70;1.85;;;;;;;;;;5082156;28;20587;-66
2023/06/28 03:42:34;;;;;;;3.03;2.03;;;;;;;;;;5083822;28;20044;-66
2023/06/28 03:45:02;;;;;;;3.92;1.90;;;;;;;;;;5084208;28;20439;-67
2023/06/28 03:47:30;;;;;;;4.43;2.22;;;;;;;;;;5081541;28;20068;-65
2023/06/28 03:49:59;;;;;;;4.53;1.90;;;;;;;;;;5080152;28;20075;-65
2023/06/28 03:52:27;;;;;;;2.35;1.73;;;;;;;;;;5083191;28;20044;-66
2023/06/28 03:54:56;;;;;;;3.00;2.20;;;;;;;;;;5077780;28;20139;-66
2023/06/28 03:57:24;;;;;;;4.03;2.00;;;;;;;;;;5079337;28;20056;-66
2023/06/28 03:59:54;;;;;;;3.97;2.40;;;;;;;;;;5080100;28;20044;-66
2023/06/28 04:02:22;;;;;;;3.08;2.30;;;;;;;;;;5085140;28;20455;-66
2023/06/28 04:04:52;;;;;;;4.85;1.88;;;;;;;;;;5080285;28;20133;-66
2023/06/28 04:07:24;;;;;;;4.10;2.20;;;;;;;;;;5080290;28;20079;-67
2023/06/28 04:09:53;;;;;;;3.03;2.10;;;;;;;;;;5085295;28;20079;-67
2023/06/28 04:12:22;;;;;;;3.50;2.50;;;;;;;;;;5080597;28;20495;-66
2023/06/28 04:14:50;;;;;;;4.78;2.10;;;;;;;;;;5080225;28;20355;-67
2023/06/28 04:17:20;;;;;;;3.75;2.25;;;;;;;;;;5082550;28;20082;-66
2023/06/28 04:19:48;;;;;;;3.60;2.33;;;;;;;;;;5084193;28;20058;-67
2023/06/28 04:22:16;;;;;;;5.50;2.58;;;;;;;;;;5080987;28;20139;-67
2023/06/28 04:24:45;;;;;;;5.70;2.42;;;;;;;;;;5079470;28;20074;-67
2023/06/28 04:27:14;;;;;;;3.55;2.38;;;;;;;;;;5084524;28;20052;-67
2023/06/28 04:29:42;;;;;;;3.78;2.60;;;;;;;;;;5082623;28;20044;-66
2023/06/28 04:32:23;;;;;;;5.65;2.47;;;;;;;;;;5085739;28;20135;-67
2023/06/28 04:34:53;;;;;;;7.45;3.38;;;;;;;;;;5086049;28;20071;-67
2023/06/28 04:37:21;;;;;;;2.90;2.25;;;;;;;;;;5084148;28;20040;-66
2023/06/28 04:39:50;;;;;;;3.80;2.13;;;;;;;;;;5082470;28;20040;-67
2023/06/28 04:42:18;;;;;;;5.68;2.70;;;;;;;;;;5084089;28;20047;-67
2023/06/28 04:44:47;;;;;;;4.57;2.70;;;;;;;;;;5079137;28;20052;-66
2023/06/28 04:47:16;;;;;;;5.93;2.60;;;;;;;;;;5083668;28;20285;-66
2023/06/28 04:49:48;;;;;;;4.40;2.38;;;;;;;;;;5084238;28;20075;-65
2023/06/28 04:52:16;;;;;;;3.33;2.20;;;;;;;;;;5082800;28;20048;-66
2023/06/28 04:54:45;;;;;;;5.00;2.00;;;;;;;;;;5082541;28;20126;-66
2023/06/28 04:57:13;;;;;;;4.15;2.20;;;;;;;;;;5084769;28;20051;-66
2023/06/28 04:59:42;;;;;;;5.93;2.70;;;;;;;;;;5085541;28;20484;-66
2023/06/28 05:02:10;;;;;;;4.53;2.35;;;;;;;;;;5082301;28;20058;-68
2023/06/28 05:04:39;;;;;;;6.53;2.30;;;;;;;;;;5082148;28;20048;-67
2023/06/28 05:07:10;;;;;;;4.32;2.80;;;;;;;;;;5081435;28;20051;-67
2023/06/28 05:09:39;;;;;;;4.32;2.45;;;;;;;;;;5083209;28;20382;-65
2023/06/28 05:12:08;;;;;;;3.53;2.65;;;;;;;;;;5077372;28;20102;-67
2023/06/28 05:14:36;;;;;;;3.85;2.40;;;;;;;;;;5079238;28;20109;-67
2023/06/28 05:17:04;;;;;;;4.88;2.40;;;;;;;;;;5079202;28;20048;-66
2023/06/28 05:19:33;;;;;;;3.53;2.15;;;;;;;;;;5082178;28;20052;-67
2023/06/28 05:22:01;;;;;;;3.17;2.47;;;;;;;;;;5083361;28;20463;-67
2023/06/28 05:24:31;;;;;;;4.78;2.65;;;;;;;;;;5081094;28;20729;-67
2023/06/28 05:26:59;;;;;;;4.72;2.60;;;;;;;;;;5080084;28;21180;-66
2023/06/28 05:29:28;;;;;;;4.72;2.55;;;;;;;;;;5081021;28;20070;-66
2023/06/28 05:31:59;;;;;;;5.95;2.63;;;;;;;;;;5078787;28;20464;-68
2023/06/28 05:34:27;;;;;;;4.90;2.85;;;;;;;;;;5081228;28;20048;-67
2023/06/28 05:36:56;;;;;;;3.45;2.30;;;;;;;;;;5082914;28;20076;-68
2023/06/28 05:39:24;;;;;;;4.20;2.55;;;;;;;;;;5080410;28;20466;-68
2023/06/28 05:41:54;;;;;;;3.30;2.28;;;;;;;;;;5083531;28;20135;-68
2023/06/28 05:44:22;;;;;;;4.07;2.83;;;;;;;;;;5081272;28;20075;-67
2023/06/28 05:46:52;;;;;;;3.58;1.98;;;;;;;;;;5082131;28;20107;-67
2023/06/28 05:49:20;;;;;;;6.05;2.72;;;;;;;;;;5082395;28;20365;-68
2023/06/28 05:51:49;;;;;;;4.65;2.33;;;;;;;;;;5077361;28;20761;-67
2023/06/28 05:54:17;;;;;;;5.78;2.90;;;;;;;;;;5081589;28;20044;-67
2023/06/28 05:56:46;;;;;;;4.80;2.63;;;;;;;;;;5082079;28;20144;-67
2023/06/28 05:59:15;;;;;;;3.35;2.40;;;;;;;;;;5084734;28;20506;-67
2023/06/28 06:01:44;;;;;;;4.90;2.17;;;;;;;;;;5081129;28;20063;-68
2023/06/28 06:04:12;;;;;;;5.18;2.67;;;;;;;;;;5081335;28;20139;-67
2023/06/28 06:06:41;;;;;;;2.92;2.10;;;;;;;;;;5079676;28;20077;-67
2023/06/28 06:09:09;;;;;;;5.80;2.03;;;;;;;;;;5083422;28;20044;-68
2023/06/28 06:11:37;;;;;;;4.03;2.17;;;;;;;;;;5080059;28;21026;-67
2023/06/28 06:14:06;;;;;;;3.95;2.30;;;;;;;;;;5080109;28;20420;-68
2023/06/28 06:16:36;;;;;;;2.92;2.05;;;;;;;;;;5080886;28;20055;-68
2023/06/28 06:19:04;;;;;;;3.28;2.00;;;;;;;;;;5083218;28;20105;-68
2023/06/28 06:21:32;;;;;;;3.45;1.85;;;;;;;;;;5082305;28;20126;-68
2023/06/28 06:24:01;;;;;;;3.20;1.85;;;;;;;;;;5083394;28;20072;-68
2023/06/28 06:26:30;;;;;;;3.38;1.88;;;;;;;;;;5082062;28;20369;-68
2023/06/28 06:28:58;;;;;;;4.28;2.22;;;;;;;;;;5081205;28;20493;-67
2023/06/28 06:31:27;;;;;;;3.97;2.22;;;;;;;;;;5081136;28;20503;-67
2023/06/28 06:34:00;;;;;;;4.93;2.60;;;;;;;;;;5081587;28;20055;-67
2023/06/28 06:36:29;;;;;;;4.28;1.95;;;;;;;;;;5081792;28;20055;-68
2023/06/28 06:38:57;;;;;;;4.18;2.17;;;;;;;;;;5081867;28;20048;-67
2023/06/28 06:41:26;;;;;;;4.05;1.83;;;;;;;;;;5080421;28;20101;-68
2023/06/28 06:43:55;;;;;;;4.90;2.13;;;;;;;;;;5082616;28;20516;-67
2023/06/28 06:46:23;;;;;;;3.13;2.10;;;;;;;;;;5082396;28;20067;-68
2023/06/28 06:48:52;;;;;;;4.93;2.22;;;;;;;;;;5078616;28;20047;-67
2023/06/28 06:51:22;;;;;;;5.05;2.00;;;;;;;;;;5082311;28;20455;-67
2023/06/28 06:53:50;;;;;;;2.55;2.00;;;;;;;;;;5080810;28;20044;-67
2023/06/28 06:56:22;;;;;;;2.72;1.98;;;;;;;;;;5082326;28;20068;-67
2023/06/28 06:58:51;;;;;;;3.17;1.90;;;;;;;;;;5081841;28;20047;-68
2023/06/28 07:01:19;;;;;;;3.28;2.13;;;;;;;;;;5083023;28;20157;-67
2023/06/28 07:03:47;;;;;;;3.22;1.83;;;;;;;;;;5078549;28;20115;-71
2023/06/28 07:06:16;;;;;;;4.57;2.35;;;;;;;;;;5080941;28;20131;-73
2023/06/28 07:08:47;;;;;;;3.10;1.80;;;;;;;;;;5081139;28;20818;-71
2023/06/28 07:11:15;;;;;;;6.40;2.08;;;;;;;;;;5079427;28;20055;-72
2023/06/28 07:13:44;;;;;;;7.72;2.20;;;;;;;;;;5080051;28;20508;-71
2023/06/28 07:16:12;;;;;;;1.90;1.67;;;;;;;;;;5078391;28;20040;-72
2023/06/28 07:18:40;;;;;;;4.55;2.08;;;;;;;;;;5081045;28;20048;-72
2023/06/28 07:21:14;;;;;;;4.35;1.85;;;;;;;;;;5081204;28;20039;-75
2023/06/28 07:23:43;;;;;;;4.20;1.70;;;;;;;;;;5081845;28;20553;-72
2023/06/28 07:26:14;;;;;;;5.50;2.30;;;;;;;;;;5080946;28;20088;-74
2023/06/28 07:28:42;;;;;;;4.75;1.75;;;;;;;;;;5082396;28;20130;-75
2023/06/28 07:31:11;;;;;;;4.40;2.35;;;;;;;;;;5082391;28;20098;-74
2023/06/28 07:33:41;;;;;;;5.40;1.92;;;;;;;;;;5078455;28;20131;-75
2023/06/28 07:36:09;;;;;;;3.80;1.83;;;;;;;;;;5081018;28;20430;-74
2023/06/28 07:38:38;;;;;;;4.45;1.75;;;;;;;;;;5081945;28;20052;-75
2023/06/28 07:41:06;;;;;;;3.35;1.85;;;;;;;;;;5079214;28;20044;-75
2023/06/28 07:43:36;;;;;;;4.28;2.15;;;;;;;;;;5078715;28;20054;-70
2023/06/28 07:46:05;;;;;;;4.00;2.08;;;;;;;;;;5081166;28;20044;-76
2023/06/28 07:48:33;;;;;;;2.85;1.67;;;;;;;;;;5078518;28;20114;-76
2023/06/28 07:51:02;;;;;;;6.85;2.00;;;;;;;;;;5079979;28;20354;-77
2023/06/28 07:53:31;;;;;;;3.08;1.25;;;;;;;;;;5081404;28;20044;-77
2023/06/28 07:55:59;;;;;;;4.75;2.15;;;;;;;;;;5080536;28;20080;-72
2023/06/28 07:58:28;;;;;;;3.13;1.58;;;;;;;;;;5082516;28;20141;-74
2023/06/28 08:00:57;;;;;;;6.07;1.75;;;;;;;;;;5081432;28;20076;-75
2023/06/28 08:03:26;;;;;;;2.45;1.80;;;;;;;;;;5081569;28;20062;-79
2023/06/28 08:05:54;;;;;;;3.58;1.90;;;;;;;;;;5080653;28;20044;-75
2023/06/28 08:08:23;;;;;;;4.00;1.80;;;;;;;;;;5078824;28;20093;-74
2023/06/28 08:10:51;;;;;;;4.28;1.73;;;;;;;;;;5078981;28;20047;-72
2023/06/28 08:13:20;;;;;;;3.10;1.45;;;;;;;;;;5081236;28;20044;-76
2023/06/28 08:15:49;;;;;;;4.78;1.80;;;;;;;;;;5080753;28;20094;-76
2023/06/28 08:18:18;;;;;;;3.30;1.73;;;;;;;;;;5081823;28;20094;-75
2023/06/28 08:20:47;;;;;;;4.90;1.67;;;;;;;;;;5082266;28;20462;-76
2023/06/28 08:23:16;;;;;;;2.60;1.35;;;;;;;;;;5083323;28;20052;-77
2023/06/28 08:25:45;;;;;;;3.75;1.50;;;;;;;;;;5082002;28;20443;-75
2023/06/28 08:28:13;;;;;;;3.80;1.52;;;;;;;;;;5083037;28;20564;-74
2023/06/28 08:30:41;;;;;;;5.93;1.83;;;;;;;;;;5082156;28;20068;-75
2023/06/28 08:33:10;;;;;;;4.72;2.15;;;;;;;;;;5082387;28;20519;-73
2023/06/28 08:35:40;;;;;;;5.93;2.00;;;;;;;;;;5081254;28;20044;-71
2023/06/28 08:38:09;;;;;;;6.20;1.67;;;;;;;;;;5082521;28;20497;-75
2023/06/28 08:40:37;;;;;;;2.42;1.63;;;;;;;;;;5082859;28;20047;-75
2023/06/28 08:43:06;;;;;;;4.03;1.50;;;;;;;;;;5082311;28;20040;-70
2023/06/28 08:45:35;;;;;;;2.97;1.40;;;;;;;;;;5081990;28;20043;-75
2023/06/28 08:48:06;;;;;;;2.95;1.40;;;;;;;;;;5081135;28;20044;-73
2023/06/28 08:50:57;;;;;;;3.63;1.27;;;;;;;;;;5080442;28;20040;-73
2023/06/28 08:53:28;;;;;;;5.15;1.85;;;;;;;;;;5081870;28;20040;-75
2023/06/28 08:55:57;;;;;;;3.78;1.70;;;;;;;;;;5081692;28;20094;-74
2023/06/28 08:58:26;;;;;;;4.10;1.35;;;;;;;;;;5083045;28;20075;-70
2023/06/28 09:00:54;;;;;;;4.32;1.45;;;;;;;;;;5083402;28;20048;-74
2023/06/28 09:03:23;;;;;;;4.85;1.75;;;;;;;;;;5081864;28;20105;-76
2023/06/28 09:05:52;;;;;;;1.88;1.40;;;;;;;;;;5080627;28;20048;-75
2023/06/28 09:08:22;;;;;;;3.63;1.67;;;;;;;;;;5077900;28;20044;-71
2023/06/28 09:10:51;;;;;;;5.78;1.45;;;;;;;;;;5078764;28;20048;-78
2023/06/28 09:13:21;;;;;;;2.40;1.17;;;;;;;;;;5081616;28;20109;-74
2023/06/28 09:15:49;;;;;;;4.80;1.33;;;;;;;;;;5079990;28;20412;-76
2023/06/28 09:18:19;;;;;;;4.30;1.27;;;;;;;;;;5080952;28;20084;-76
2023/06/28 09:20:49;;;;;;;6.82;1.23;;;;;;;;;;5081367;28;20044;-74
2023/06/28 09:23:25;;;;;;;3.13;1.25;;;;;;;;;;5081732;28;20052;-75
2023/06/28 09:25:53;;;;;;;3.40;1.30;;;;;;;;;;5080375;28;20137;-75
2023/06/28 09:28:23;;;;;;;2.25;1.30;;;;;;;;;;5080066;28;20109;-77
2023/06/28 09:30:55;;;;;;;2.97;1.65;;;;;;;;;;5082430;28;20047;-77
2023/06/28 09:33:23;;;;;;;3.72;1.52;;;;;;;;;;5079840;28;20138;-76
2023/06/28 09:35:54;;;;;;;1.45;1.20;;;;;;;;;;5081129;28;20516;-77
2023/06/28 09:38:25;;;;;;;4.07;1.40;;;;;;;;;;5081188;28;20048;-75
2023/06/28 09:40:56;;;;;;;4.32;1.80;;;;;;;;;;5083236;28;20385;-76
2023/06/28 09:43:24;;;;;;;3.80;1.77;;;;;;;;;;5081373;28;20183;-75
2023/06/28 09:45:55;;;;;;;3.97;1.45;;;;;;;;;;5080589;28;20548;-77
2023/06/28 09:48:24;;;;;;;2.97;1.42;;;;;;;;;;5082330;28;20067;-74
2023/06/28 09:50:53;;;;;;;4.68;1.60;;;;;;;;;;5077743;28;20051;-76
2023/06/28 09:53:22;;;;;;;3.13;1.27;;;;;;;;;;5081646;28;20068;-72
2023/06/28 09:55:52;;;;;;;2.33;1.60;;;;;;;;;;5079165;28;20044;-70
2023/06/28 09:58:21;;;;;;;5.40;1.70;;;;;;;;;;5082692;28;20048;-74
2023/06/28 10:00:50;;;;;;;3.90;1.35;;;;;;;;;;5082488;28;20554;-74
2023/06/28 10:03:19;;;;;;;2.72;1.40;;;;;;;;;;5080450;28;20097;-74
2023/06/28 10:05:48;;;;;;;6.07;1.80;;;;;;;;;;5078010;28;20521;-71
2023/06/28 10:08:17;;;;;;;5.35;1.60;;;;;;;;;;5079925;28;20382;-71
2023/06/28 10:10:46;;;;;;;2.50;1.40;;;;;;;;;;5083708;28;20451;-76
2023/06/28 10:13:20;;;;;;;5.57;1.42;;;;;;;;;;5081305;28;20047;-75
2023/06/28 10:15:49;;;;;;;5.93;1.83;;;;;;;;;;5080917;28;20052;-75
2023/06/28 10:18:18;;;;;;;3.10;1.50;;;;;;;;;;5080937;28;20123;-74
2023/06/28 10:20:47;;;;;;;2.63;1.40;;;;;;;;;;5082285;28;20109;-75
2023/06/28 10:23:17;;;;;;;2.30;1.38;;;;;;;;;;5083540;28;20059;-74
2023/06/28 10:25:46;;;;;;;3.75;1.35;;;;;;;;;;5083647;28;20409;-75
2023/06/28 10:28:16;;;;;;;2.15;1.15;;;;;;;;;;5083166;28;20528;-73
2023/06/28 10:30:44;;;;;;;2.20;1.17;;;;;;;;;;5083739;28;20135;-75
2023/06/28 10:33:15;;;;;;;2.88;1.48;;;;;;;;;;5083330;28;20449;-75
2023/06/28 10:35:45;;;;;;;4.25;1.92;;;;;;;;;;5082630;28;20143;-75
2023/06/28 10:38:14;;;;;;;3.15;1.23;;;;;;;;;;5082317;28;20766;-74
2023/06/28 10:40:42;;;;;;;2.05;1.55;;;;;;;;;;5082970;28;20400;-75
2023/06/28 10:43:23;;;;;;;4.22;1.40;;;;;;;;;;5081441;28;20489;-75
2023/06/28 10:45:52;;;;;;;1.63;1.50;;;;;;;;;;5081673;28;20056;-75
2023/06/28 10:48:21;;;;;;;5.05;1.58;;;;;;;;;;5083373;28;20048;-75
2023/06/28 10:50:50;;;;;;;2.00;1.23;;;;;;;;;;5074967;28;20052;-75
2023/06/28 10:53:22;;;;;;;4.63;1.42;;;;;;;;;;5083655;28;20051;-72
2023/06/28 10:56:05;;;;;;;3.00;1.30;;;;;;;;;;5080641;28;20052;-74
2023/06/28 10:58:39;;;;;;;2.85;1.27;;;;;;;;;;5077516;28;20086;-76
2023/06/28 11:01:08;;;;;;;2.45;1.42;;;;;;;;;;5077995;28;20055;-72
2023/06/28 11:03:40;;;;;;;3.13;1.20;;;;;;;;;;5078049;28;20660;-75
2023/06/28 11:06:09;;;;;;;3.35;1.38;;;;;;;;;;5080046;28;20047;-74
2023/06/28 11:08:40;;;;;;;3.53;1.48;;;;;;;;;;5077766;28;20040;-75
2023/06/28 11:11:09;;;;;;;3.75;1.60;;;;;;;;;;5077675;28;20484;-75
2023/06/28 11:13:48;;;;;;;3.08;1.63;;;;;;;;;;5077431;28;20440;-73
2023/06/28 11:16:21;;;;;;;3.28;1.33;;;;;;;;;;5078676;28;20146;-74
2023/06/28 11:18:50;;;;;;;3.88;1.60;;;;;;;;;;5078663;28;20071;-73
2023/06/28 11:21:19;;;;;;;4.47;1.80;;;;;;;;;;5076622;28;20075;-75
2023/06/28 11:23:48;;;;;;;2.15;1.60;;;;;;;;;;5077263;28;20097;-73
2023/06/28 11:26:17;;;;;;;2.08;1.10;;;;;;;;;;5075187;28;20535;-75
2023/06/28 11:28:51;;;;;;;3.03;1.30;;;;;;;;;;5074635;28;20065;-72
2023/06/28 11:31:20;;;;;;;3.30;1.42;;;;;;;;;;5073478;28;20362;-76
2023/06/28 11:33:52;;;;;;;4.32;1.55;;;;;;;;;;5078633;28;20539;-78
2023/06/28 11:36:23;;;;;;;1.27;1.10;;;;;;;;;;5078706;28;20114;-74
2023/06/28 11:38:52;;;;;;;5.00;1.38;;;;;;;;;;5079876;28;20549;-71
2023/06/28 11:41:20;;;;;;;1.67;1.25;;;;;;;;;;5077984;28;20049;-76
2023/06/28 11:43:50;;;;;;;2.50;1.10;;;;;;;;;;5077251;28;20093;-75
2023/06/28 11:46:19;;;;;;;3.20;1.88;;;;;;;;;;5075525;28;20044;-77
2023/06/28 11:48:49;;;;;;;2.55;1.38;;;;;;;;;;5078560;28;20055;-78
2023/06/28 11:51:17;;;;;;;2.60;1.23;;;;;;;;;;5080970;28;20052;-72
2023/06/28 11:53:49;;;;;;;4.75;1.25;;;;;;;;;;5082875;28;20052;-78
2023/06/28 11:56:18;;;;;;;1.98;1.20;;;;;;;;;;5078785;28;20497;-79
2023/06/28 11:58:47;;;;;;;2.33;1.20;;;;;;;;;;5082854;28;20454;-80
2023/06/28 12:01:23;;;;;;;2.45;1.02;;;;;;;;;;5078681;28;20456;-78
2023/06/28 12:03:51;;;;;;;1.98;1.48;;;;;;;;;;5079082;28;20500;-76
2023/06/28 12:06:21;;;;;;;2.25;1.35;;;;;;;;;;5080836;28;20075;-74
2023/06/28 12:08:49;;;;;;;2.45;1.15;;;;;;;;;;5078993;28;20080;-74
2023/06/28 12:11:18;;;;;;;3.38;0.90;;;;;;;;;;5081422;28;20049;-79
2023/06/28 12:13:47;;;;;;;3.58;1.15;;;;;;;;;;5077105;28;20044;-73
2023/06/28 12:16:16;;;;;;;1.65;1.00;;;;;;;;;;5077936;28;21153;-67
2023/06/28 12:18:58;;;;;;;1.27;0.80;;;;;;;;;;5078882;28;20137;-71
2023/06/28 12:21:27;;;;;;;1.92;0.93;;;;;;;;;;5081377;28;20080;-72
2023/06/28 12:23:55;;;;;;;4.18;1.40;;;;;;;;;;5083713;28;20130;-71
2023/06/28 12:26:24;;;;;;;2.03;1.15;;;;;;;;;;5082699;28;20052;-76
2023/06/28 12:28:52;;;;;;;2.33;1.00;;;;;;;;;;5081907;28;20054;-73
2023/06/28 12:31:21;;;;;;;3.72;1.20;;;;;;;;;;5080546;28;20105;-75
2023/06/28 12:33:55;;;;;;;1.52;0.90;;;;;;;;;;5081043;28;20048;-72
2023/06/28 12:36:25;;;;;;;2.85;1.27;;;;;;;;;;5077455;28;21163;-75
2023/06/28 12:38:53;;;;;;;2.20;0.80;;;;;;;;;;5082453;28;20052;-76
2023/06/28 12:41:22;;;;;;;1.90;0.77;;;;;;;;;;5079698;28;20141;-74
2023/06/28 12:43:57;;;;;;;1.40;0.95;;;;;;;;;;5080090;28;20545;-73
2023/06/28 12:46:27;;;;;;;2.50;0.80;;;;;;;;;;5079369;28;20481;-75
2023/06/28 12:48:57;;;;;;;3.20;1.30;;;;;;;;;;5079729;28;20071;-73
2023/06/28 12:51:27;;;;;;;2.53;1.08;;;;;;;;;;5081074;28;20048;-73
2023/06/28 12:53:55;;;;;;;1.02;0.75;;;;;;;;;;5081194;28;20048;-72
2023/06/28 12:56:24;;;;;;;1.67;0.77;;;;;;;;;;5079841;28;20148;-73
2023/06/28 12:58:53;;;;;;;2.75;0.98;;;;;;;;;;5082903;28;20058;-74
2023/06/28 13:01:21;;;;;;;1.73;1.08;;;;;;;;;;5079062;28;20044;-73
2023/06/28 13:03:54;;;;;;;1.20;0.80;;;;;;;;;;5080793;28;20040;-73
2023/06/28 13:06:23;;;;;;;1.75;1.02;;;;;;;;;;5081334;28;20059;-77
2023/06/28 13:08:53;;;;;;;3.05;1.05;;;;;;;;;;5079987;28;20076;-79
2023/06/28 13:11:22;;;;;;;1.92;1.10;;;;;;;;;;5082290;28;20056;-78
2023/06/28 13:13:50;;;;;;;2.60;1.50;;;;;;;;;;5080539;28;20098;-78
2023/06/28 13:16:20;;;;;;;1.52;1.08;;;;;;;;;;5080571;28;20109;-69
2023/06/28 13:18:48;;;;;;;1.75;1.10;;;;;;;;;;5082402;28;20086;-75
2023/06/28 13:21:17;;;;;;;2.05;1.05;;;;;;;;;;5081103;28;20105;-78
2023/06/28 13:23:46;;;;;;;4.15;1.10;;;;;;;;;;5078926;28;20095;-76
2023/06/28 13:26:15;;;;;;;1.73;0.93;;;;;;;;;;5078399;28;20068;-76
2023/06/28 13:28:44;;;;;;;2.60;1.15;;;;;;;;;;5079865;28;20101;-71
2023/06/28 13:31:13;;;;;;;3.47;1.20;;;;;;;;;;5082587;28;20549;-74
2023/06/28 13:33:41;;;;;;;2.17;1.13;;;;;;;;;;5077888;28;20454;-78
2023/06/28 13:36:10;;;;;;;1.77;1.13;;;;;;;;;;5081323;28;20451;-78
2023/06/28 13:38:39;;;;;;;1.73;0.80;;;;;;;;;;5082345;28;20044;-77
2023/06/28 13:41:07;;;;;;;1.40;0.80;;;;;;;;;;5077942;28;20685;-78
2023/06/28 13:43:38;;;;;;;1.90;1.02;;;;;;;;;;5080097;28;20894;-77
2023/06/28 13:46:07;;;;;;;1.35;0.88;;;;;;;;;;5078311;28;20055;-73
2023/06/28 13:48:35;;;;;;;0.95;0.70;;;;;;;;;;5079447;28;20554;-72
2023/06/28 13:51:03;;;;;;;1.67;0.90;;;;;;;;;;5081379;28;20493;-80
2023/06/28 13:53:32;;;;;;;2.05;0.90;;;;;;;;;;5079530;28;20052;-72
2023/06/28 13:56:00;;;;;;;2.22;0.93;;;;;;;;;;5080825;28;20086;-74
2023/06/28 13:58:29;;;;;;;1.15;0.70;;;;;;;;;;5079612;28;20531;-79
2023/06/28 14:00:59;;;;;;;1.80;0.90;;;;;;;;;;5079494;28;20402;-79
2023/06/28 14:03:28;;;;;;;2.38;1.00;;;;;;;;;;5077977;28;20036;-71
2023/06/28 14:05:56;;;;;;;1.88;0.80;;;;;;;;;;5076797;28;20135;-71
2023/06/28 14:08:25;;;;;;;2.08;1.08;;;;;;;;;;5078535;28;20513;-78
2023/06/28 14:10:53;;;;;;;1.70;1.05;;;;;;;;;;5080670;28;20390;-77
2023/06/28 14:13:22;;;;;;;2.67;1.05;;;;;;;;;;5078953;28;20489;-78
2023/06/28 14:15:50;;;;;;;1.15;0.70;;;;;;;;;;5078988;28;20117;-79
2023/06/28 14:18:20;;;;;;;2.03;0.80;;;;;;;;;;5080279;28;20044;-69
2023/06/28 14:20:49;;;;;;;2.42;1.02;;;;;;;;;;5079922;28;20054;-77
2023/06/28 14:23:17;;;;;;;1.80;0.80;;;;;;;;;;5078494;28;20527;-77
2023/06/28 14:25:45;;;;;;;4.20;0.90;;;;;;;;;;5078229;28;20530;-75
2023/06/28 14:28:14;;;;;;;1.90;0.80;;;;;;;;;;5079278;28;20079;-77
2023/06/28 14:30:44;;;;;;;2.20;0.98;;;;;;;;;;5079402;28;20040;-76
2023/06/28 14:33:13;;;;;;;1.15;0.73;;;;;;;;;;5074297;28;20047;-74
2023/06/28 14:35:43;;;;;;;1.40;1.00;;;;;;;;;;5076433;28;20048;-79
2023/06/28 14:38:12;;;;;;;4.03;0.98;;;;;;;;;;5073801;28;20040;-77
2023/06/28 14:40:40;;;;;;;1.80;0.88;;;;;;;;;;5077160;28;20048;-81
2023/06/28 14:43:08;;;;;;;2.83;1.10;;;;;;;;;;5077483;28;20051;-79
2023/06/28 14:45:37;;;;;;;1.00;0.70;;;;;;;;;;5077606;28;20459;-71
2023/06/28 14:48:06;;;;;;;2.60;1.10;;;;;;;;;;5078324;28;20406;-76
2023/06/28 14:50:34;;;;;;;1.60;0.93;;;;;;;;;;5075439;28;20059;-80
2023/06/28 14:53:04;;;;;;;2.75;0.80;;;;;;;;;;5079764;28;20051;-71
2023/06/28 14:55:32;;;;;;;1.70;1.15;;;;;;;;;;5075667;28;20521;-80